sensor_id;sensor_type;location;lat;lon;timestamp;P1;durP1;ratioP1;P2;durP2;ratioP2
5333;SDS011;2689;50.954;7.116;2024-03-25T00:02:26;17.67;;;4.33;;
5333;SDS011;2689;50.954;7.116;2024-03-25T00:04:57;11.53;;;3.30;;
5333;SDS011;2689;50.954;7.116;2024-03-25T00:07:37;16.47;;;3.80;;
5333;SDS011;2689;50.954;7.116;2024-03-25T00:27:01;13.00;;;3.90;;
5333;SDS011;2689;50.954;7.116;2024-03-25T01:41:20;12.20;;;4.10;;
5333;SDS011;2689;50.954;7.116;2024-03-25T01:47:52;18.87;;;4.23;;
5333;SDS011;2689;50.954;7.116;2024-03-25T02:20:35;13.23;;;3.90;;
5333;SDS011;2689;50.954;7.116;2024-03-25T02:58:06;19.67;;;5.10;;
5333;SDS011;2689;50.954;7.116;2024-03-25T03:00:59;18.23;;;4.30;;
5333;SDS011;2689;50.954;7.116;2024-03-25T04:19:16;11.10;;;3.50;;
5333;SDS011;2689;50.954;7.116;2024-03-25T04:33:25;9.73;;;3.27;;
5333;SDS011;2689;50.954;7.116;2024-03-25T05:11:23;13.67;;;4.13;;
5333;SDS011;2689;50.954;7.116;2024-03-25T05:15:01;19.10;;;4.50;;
5333;SDS011;2689;50.954;7.116;2024-03-25T05:27:24;12.23;;;4.73;;
5333;SDS011;2689;50.954;7.116;2024-03-25T06:02:49;13.63;;;3.80;;
5333;SDS011;2689;50.954;7.116;2024-03-25T06:31:10;18.53;;;4.30;;
5333;SDS011;2689;50.954;7.116;2024-03-25T06:34:10;15.27;;;4.60;;
5333;SDS011;2689;50.954;7.116;2024-03-25T06:36:55;16.17;;;4.90;;
5333;SDS011;2689;50.954;7.116;2024-03-25T06:39:37;20.10;;;6.03;;
5333;SDS011;2689;50.954;7.116;2024-03-25T06:43:46;15.90;;;5.00;;
5333;SDS011;2689;50.954;7.116;2024-03-25T06:48:53;20.63;;;5.60;;
5333;SDS011;2689;50.954;7.116;2024-03-25T06:51:49;19.00;;;5.60;;
5333;SDS011;2689;50.954;7.116;2024-03-25T06:54:59;11.23;;;5.30;;
5333;SDS011;2689;50.954;7.116;2024-03-25T07:04:48;13.83;;;5.40;;
5333;SDS011;2689;50.954;7.116;2024-03-25T07:07:18;13.40;;;5.80;;
5333;SDS011;2689;50.954;7.116;2024-03-25T07:18:57;12.47;;;4.53;;
5333;SDS011;2689;50.954;7.116;2024-03-25T07:28:13;18.57;;;5.20;;
5333;SDS011;2689;50.954;7.116;2024-03-25T07:30:53;12.50;;;4.27;;
5333;SDS011;2689;50.954;7.116;2024-03-25T07:33:23;15.07;;;4.50;;
5333;SDS011;2689;50.954;7.116;2024-03-25T07:39:41;11.53;;;4.40;;
5333;SDS011;2689;50.954;7.116;2024-03-25T07:54:51;15.70;;;5.27;;
5333;SDS011;2689;50.954;7.116;2024-03-25T07:57:35;10.80;;;4.03;;
5333;SDS011;2689;50.954;7.116;2024-03-25T08:57:17;9.67;;;3.00;;
5333;SDS011;2689;50.954;7.116;2024-03-25T09:20:17;7.67;;;2.50;;
5333;SDS011;2689;50.954;7.116;2024-03-25T09:22:53;10.53;;;3.10;;
5333;SDS011;2689;50.954;7.116;2024-03-25T09:25:24;7.63;;;3.27;;
5333;SDS011;2689;50.954;7.116;2024-03-25T09:28:12;9.43;;;2.70;;
5333;SDS011;2689;50.954;7.116;2024-03-25T09:34:26;12.33;;;2.93;;
5333;SDS011;2689;50.954;7.116;2024-03-25T09:36:55;13.60;;;3.07;;
5333;SDS011;2689;50.954;7.116;2024-03-25T09:39:39;9.73;;;3.00;;
5333;SDS011;2689;50.954;7.116;2024-03-25T09:42:13;13.40;;;3.00;;
5333;SDS011;2689;50.954;7.116;2024-03-25T09:58:10;8.50;;;2.80;;
5333;SDS011;2689;50.954;7.116;2024-03-25T10:00:39;7.73;;;2.60;;
5333;SDS011;2689;50.954;7.116;2024-03-25T10:05:48;7.77;;;2.90;;
5333;SDS011;2689;50.954;7.116;2024-03-25T10:08:32;8.33;;;2.53;;
5333;SDS011;2689;50.954;7.116;2024-03-25T10:10:58;8.70;;;3.30;;
5333;SDS011;2689;50.954;7.116;2024-03-25T10:16:32;9.90;;;2.50;;
5333;SDS011;2689;50.954;7.116;2024-03-25T10:19:13;9.73;;;2.63;;
5333;SDS011;2689;50.954;7.116;2024-03-25T10:21:47;12.80;;;3.20;;
5333;SDS011;2689;50.954;7.116;2024-03-25T10:24:35;5.90;;;2.40;;
5333;SDS011;2689;50.954;7.116;2024-03-25T10:27:03;5.97;;;2.53;;
5333;SDS011;2689;50.954;7.116;2024-03-25T10:29:30;7.10;;;2.33;;
5333;SDS011;2689;50.954;7.116;2024-03-25T10:32:09;6.93;;;2.10;;
5333;SDS011;2689;50.954;7.116;2024-03-25T10:34:35;6.83;;;2.30;;
5333;SDS011;2689;50.954;7.116;2024-03-25T10:37:01;4.80;;;2.40;;
5333;SDS011;2689;50.954;7.116;2024-03-25T10:39:30;7.23;;;2.80;;
5333;SDS011;2689;50.954;7.116;2024-03-25T10:41:59;7.03;;;2.40;;
5333;SDS011;2689;50.954;7.116;2024-03-25T10:44:26;6.93;;;2.60;;
5333;SDS011;2689;50.954;7.116;2024-03-25T10:46:56;5.20;;;2.03;;
5333;SDS011;2689;50.954;7.116;2024-03-25T10:49:31;3.43;;;2.00;;
5333;SDS011;2689;50.954;7.116;2024-03-25T10:52:00;7.77;;;2.63;;
5333;SDS011;2689;50.954;7.116;2024-03-25T10:54:36;6.17;;;2.10;;
5333;SDS011;2689;50.954;7.116;2024-03-25T10:57:09;8.50;;;2.07;;
5333;SDS011;2689;50.954;7.116;2024-03-25T10:59:39;7.80;;;2.57;;
5333;SDS011;2689;50.954;7.116;2024-03-25T11:02:08;7.53;;;2.23;;
5333;SDS011;2689;50.954;7.116;2024-03-25T11:04:37;8.63;;;2.20;;
5333;SDS011;2689;50.954;7.116;2024-03-25T11:07:10;4.90;;;1.83;;
5333;SDS011;2689;50.954;7.116;2024-03-25T11:09:53;5.70;;;2.10;;
5333;SDS011;2689;50.954;7.116;2024-03-25T11:12:31;7.43;;;2.00;;
5333;SDS011;2689;50.954;7.116;2024-03-25T11:14:58;7.10;;;2.67;;
5333;SDS011;2689;50.954;7.116;2024-03-25T11:17:26;5.87;;;1.53;;
5333;SDS011;2689;50.954;7.116;2024-03-25T11:19:54;7.53;;;2.13;;
5333;SDS011;2689;50.954;7.116;2024-03-25T11:22:32;4.40;;;1.63;;
5333;SDS011;2689;50.954;7.116;2024-03-25T11:25:11;5.10;;;1.60;;
5333;SDS011;2689;50.954;7.116;2024-03-25T11:27:38;6.73;;;1.90;;
5333;SDS011;2689;50.954;7.116;2024-03-25T11:30:06;5.10;;;1.80;;
5333;SDS011;2689;50.954;7.116;2024-03-25T11:32:41;6.67;;;1.60;;
5333;SDS011;2689;50.954;7.116;2024-03-25T11:35:11;5.57;;;1.67;;
5333;SDS011;2689;50.954;7.116;2024-03-25T11:37:39;10.50;;;2.57;;
5333;SDS011;2689;50.954;7.116;2024-03-25T11:40:06;7.30;;;2.33;;
5333;SDS011;2689;50.954;7.116;2024-03-25T11:42:33;6.80;;;2.23;;
5333;SDS011;2689;50.954;7.116;2024-03-25T11:45:13;7.03;;;1.67;;
5333;SDS011;2689;50.954;7.116;2024-03-25T11:47:43;5.40;;;2.07;;
5333;SDS011;2689;50.954;7.116;2024-03-25T11:50:13;10.70;;;2.27;;
5333;SDS011;2689;50.954;7.116;2024-03-25T11:52:41;7.10;;;2.27;;
5333;SDS011;2689;50.954;7.116;2024-03-25T11:55:08;7.10;;;2.40;;
5333;SDS011;2689;50.954;7.116;2024-03-25T11:57:35;5.83;;;2.37;;
5333;SDS011;2689;50.954;7.116;2024-03-25T12:00:01;5.97;;;2.10;;
5333;SDS011;2689;50.954;7.116;2024-03-25T12:02:28;9.70;;;3.17;;
5333;SDS011;2689;50.954;7.116;2024-03-25T12:04:54;4.50;;;2.23;;
5333;SDS011;2689;50.954;7.116;2024-03-25T12:07:23;5.60;;;2.20;;
5333;SDS011;2689;50.954;7.116;2024-03-25T12:09:51;6.60;;;1.97;;
5333;SDS011;2689;50.954;7.116;2024-03-25T12:12:47;7.50;;;2.63;;
5333;SDS011;2689;50.954;7.116;2024-03-25T12:15:14;4.27;;;2.27;;
5333;SDS011;2689;50.954;7.116;2024-03-25T12:17:41;6.47;;;1.90;;
5333;SDS011;2689;50.954;7.116;2024-03-25T12:20:10;5.10;;;1.77;;
5333;SDS011;2689;50.954;7.116;2024-03-25T12:25:23;6.70;;;2.53;;
5333;SDS011;2689;50.954;7.116;2024-03-25T12:27:49;8.00;;;3.00;;
5333;SDS011;2689;50.954;7.116;2024-03-25T12:30:19;3.87;;;1.70;;
5333;SDS011;2689;50.954;7.116;2024-03-25T12:32:47;5.03;;;2.00;;
5333;SDS011;2689;50.954;7.116;2024-03-25T12:35:16;8.57;;;1.97;;
5333;SDS011;2689;50.954;7.116;2024-03-25T12:37:45;4.50;;;1.40;;
5333;SDS011;2689;50.954;7.116;2024-03-25T12:40:24;8.80;;;2.30;;
5333;SDS011;2689;50.954;7.116;2024-03-25T12:42:52;5.20;;;1.93;;
5333;SDS011;2689;50.954;7.116;2024-03-25T12:45:21;6.07;;;1.70;;
5333;SDS011;2689;50.954;7.116;2024-03-25T12:50:15;4.80;;;2.07;;
5333;SDS011;2689;50.954;7.116;2024-03-25T12:52:41;4.90;;;1.70;;
5333;SDS011;2689;50.954;7.116;2024-03-25T12:55:09;5.67;;;2.00;;
5333;SDS011;2689;50.954;7.116;2024-03-25T12:57:38;6.37;;;2.03;;
5333;SDS011;2689;50.954;7.116;2024-03-25T13:00:05;4.40;;;1.70;;
5333;SDS011;2689;50.954;7.116;2024-03-25T13:02:33;8.97;;;2.40;;
5333;SDS011;2689;50.954;7.116;2024-03-25T13:05:00;4.50;;;1.77;;
5333;SDS011;2689;50.954;7.116;2024-03-25T13:07:27;6.27;;;1.77;;
5333;SDS011;2689;50.954;7.116;2024-03-25T13:09:55;10.33;;;2.07;;
5333;SDS011;2689;50.954;7.116;2024-03-25T13:12:45;6.33;;;2.30;;
5333;SDS011;2689;50.954;7.116;2024-03-25T13:15:13;4.20;;;1.67;;
5333;SDS011;2689;50.954;7.116;2024-03-25T13:17:39;4.83;;;2.50;;
5333;SDS011;2689;50.954;7.116;2024-03-25T13:20:07;6.70;;;1.80;;
5333;SDS011;2689;50.954;7.116;2024-03-25T13:22:35;7.80;;;2.83;;
5333;SDS011;2689;50.954;7.116;2024-03-25T13:25:03;2.93;;;1.60;;
5333;SDS011;2689;50.954;7.116;2024-03-25T13:27:29;4.77;;;1.70;;
5333;SDS011;2689;50.954;7.116;2024-03-25T13:29:58;5.03;;;1.70;;
5333;SDS011;2689;50.954;7.116;2024-03-25T13:32:24;8.43;;;1.97;;
5333;SDS011;2689;50.954;7.116;2024-03-25T13:35:04;5.13;;;1.93;;
5333;SDS011;2689;50.954;7.116;2024-03-25T13:37:49;2.70;;;1.67;;
5333;SDS011;2689;50.954;7.116;2024-03-25T13:40:15;4.10;;;1.30;;
5333;SDS011;2689;50.954;7.116;2024-03-25T13:42:42;5.03;;;1.70;;
5333;SDS011;2689;50.954;7.116;2024-03-25T13:48:08;7.30;;;1.50;;
5333;SDS011;2689;50.954;7.116;2024-03-25T13:50:35;3.67;;;1.50;;
5333;SDS011;2689;50.954;7.116;2024-03-25T13:53:01;5.63;;;1.83;;
5333;SDS011;2689;50.954;7.116;2024-03-25T13:55:27;7.30;;;1.90;;
5333;SDS011;2689;50.954;7.116;2024-03-25T13:57:54;2.70;;;1.30;;
5333;SDS011;2689;50.954;7.116;2024-03-25T14:00:21;6.87;;;1.70;;
5333;SDS011;2689;50.954;7.116;2024-03-25T14:02:48;4.07;;;1.60;;
5333;SDS011;2689;50.954;7.116;2024-03-25T14:07:58;3.37;;;1.40;;
5333;SDS011;2689;50.954;7.116;2024-03-25T14:10:24;5.43;;;1.80;;
5333;SDS011;2689;50.954;7.116;2024-03-25T14:13:02;8.87;;;1.63;;
5333;SDS011;2689;50.954;7.116;2024-03-25T14:15:29;4.67;;;1.63;;
5333;SDS011;2689;50.954;7.116;2024-03-25T14:17:55;5.63;;;1.50;;
5333;SDS011;2689;50.954;7.116;2024-03-25T14:20:22;4.30;;;1.70;;
5333;SDS011;2689;50.954;7.116;2024-03-25T14:22:49;4.83;;;1.63;;
5333;SDS011;2689;50.954;7.116;2024-03-25T14:25:16;7.17;;;1.93;;
5333;SDS011;2689;50.954;7.116;2024-03-25T14:27:42;5.03;;;1.63;;
5333;SDS011;2689;50.954;7.116;2024-03-25T14:30:08;4.80;;;1.70;;
5333;SDS011;2689;50.954;7.116;2024-03-25T14:32:36;5.17;;;1.70;;
5333;SDS011;2689;50.954;7.116;2024-03-25T14:35:03;4.33;;;1.70;;
5333;SDS011;2689;50.954;7.116;2024-03-25T14:37:30;6.63;;;1.93;;
5333;SDS011;2689;50.954;7.116;2024-03-25T14:39:59;7.47;;;1.87;;
5333;SDS011;2689;50.954;7.116;2024-03-25T14:42:31;3.50;;;1.97;;
5333;SDS011;2689;50.954;7.116;2024-03-25T14:44:58;4.83;;;1.53;;
5333;SDS011;2689;50.954;7.116;2024-03-25T14:47:24;4.63;;;1.53;;
5333;SDS011;2689;50.954;7.116;2024-03-25T14:49:50;3.47;;;1.63;;
5333;SDS011;2689;50.954;7.116;2024-03-25T14:52:20;3.87;;;1.50;;
5333;SDS011;2689;50.954;7.116;2024-03-25T14:54:47;5.57;;;1.87;;
5333;SDS011;2689;50.954;7.116;2024-03-25T14:57:19;5.20;;;2.00;;
5333;SDS011;2689;50.954;7.116;2024-03-25T15:00:00;8.70;;;2.17;;
5333;SDS011;2689;50.954;7.116;2024-03-25T15:02:29;3.80;;;1.40;;
5333;SDS011;2689;50.954;7.116;2024-03-25T15:04:55;3.50;;;1.50;;
5333;SDS011;2689;50.954;7.116;2024-03-25T15:07:24;8.37;;;2.40;;
5333;SDS011;2689;50.954;7.116;2024-03-25T15:09:51;4.77;;;1.87;;
5333;SDS011;2689;50.954;7.116;2024-03-25T15:12:20;3.20;;;1.60;;
5333;SDS011;2689;50.954;7.116;2024-03-25T15:14:46;5.23;;;2.30;;
5333;SDS011;2689;50.954;7.116;2024-03-25T15:17:12;6.80;;;2.27;;
5333;SDS011;2689;50.954;7.116;2024-03-25T15:19:38;7.13;;;2.60;;
5333;SDS011;2689;50.954;7.116;2024-03-25T15:22:05;4.83;;;1.73;;
5333;SDS011;2689;50.954;7.116;2024-03-25T15:24:31;4.93;;;1.80;;
5333;SDS011;2689;50.954;7.116;2024-03-25T15:26:57;3.53;;;1.60;;
5333;SDS011;2689;50.954;7.116;2024-03-25T15:29:25;6.70;;;2.30;;
5333;SDS011;2689;50.954;7.116;2024-03-25T15:31:51;4.20;;;2.03;;
5333;SDS011;2689;50.954;7.116;2024-03-25T15:34:44;7.27;;;1.77;;
5333;SDS011;2689;50.954;7.116;2024-03-25T15:37:18;3.37;;;1.83;;
5333;SDS011;2689;50.954;7.116;2024-03-25T15:39:46;4.20;;;1.77;;
5333;SDS011;2689;50.954;7.116;2024-03-25T15:42:13;5.00;;;1.67;;
5333;SDS011;2689;50.954;7.116;2024-03-25T15:44:40;4.93;;;1.83;;
5333;SDS011;2689;50.954;7.116;2024-03-25T15:47:06;7.10;;;2.20;;
5333;SDS011;2689;50.954;7.116;2024-03-25T15:49:35;3.53;;;1.77;;
5333;SDS011;2689;50.954;7.116;2024-03-25T15:52:02;4.97;;;1.73;;
5333;SDS011;2689;50.954;7.116;2024-03-25T15:54:28;3.57;;;1.73;;
5333;SDS011;2689;50.954;7.116;2024-03-25T15:56:54;5.10;;;2.10;;
5333;SDS011;2689;50.954;7.116;2024-03-25T15:59:20;5.50;;;2.20;;
5333;SDS011;2689;50.954;7.116;2024-03-25T16:01:49;4.70;;;2.07;;
5333;SDS011;2689;50.954;7.116;2024-03-25T16:04:17;3.23;;;1.77;;
5333;SDS011;2689;50.954;7.116;2024-03-25T16:06:43;4.70;;;2.27;;
5333;SDS011;2689;50.954;7.116;2024-03-25T16:09:12;4.90;;;1.97;;
5333;SDS011;2689;50.954;7.116;2024-03-25T16:11:47;3.47;;;1.43;;
5333;SDS011;2689;50.954;7.116;2024-03-25T16:14:13;3.80;;;1.70;;
5333;SDS011;2689;50.954;7.116;2024-03-25T16:16:41;7.80;;;2.40;;
5333;SDS011;2689;50.954;7.116;2024-03-25T16:19:10;4.80;;;1.70;;
5333;SDS011;2689;50.954;7.116;2024-03-25T16:21:38;5.00;;;1.37;;
5333;SDS011;2689;50.954;7.116;2024-03-25T16:24:05;6.03;;;2.00;;
5333;SDS011;2689;50.954;7.116;2024-03-25T16:26:32;6.40;;;2.30;;
5333;SDS011;2689;50.954;7.116;2024-03-25T16:28:58;5.50;;;2.07;;
5333;SDS011;2689;50.954;7.116;2024-03-25T16:31:27;5.70;;;1.97;;
5333;SDS011;2689;50.954;7.116;2024-03-25T16:33:53;4.50;;;1.93;;
5333;SDS011;2689;50.954;7.116;2024-03-25T16:36:29;3.03;;;1.50;;
5333;SDS011;2689;50.954;7.116;2024-03-25T16:38:55;5.63;;;2.60;;
5333;SDS011;2689;50.954;7.116;2024-03-25T16:41:22;5.00;;;1.97;;
5333;SDS011;2689;50.954;7.116;2024-03-25T16:43:48;4.50;;;1.97;;
5333;SDS011;2689;50.954;7.116;2024-03-25T16:46:14;5.17;;;1.80;;
5333;SDS011;2689;50.954;7.116;2024-03-25T16:48:42;6.07;;;1.50;;
5333;SDS011;2689;50.954;7.116;2024-03-25T16:51:08;3.57;;;1.80;;
5333;SDS011;2689;50.954;7.116;2024-03-25T16:53:36;7.10;;;2.13;;
5333;SDS011;2689;50.954;7.116;2024-03-25T16:56:03;7.00;;;2.20;;
5333;SDS011;2689;50.954;7.116;2024-03-25T16:58:30;5.87;;;2.30;;
5333;SDS011;2689;50.954;7.116;2024-03-25T17:00:56;3.17;;;1.80;;
5333;SDS011;2689;50.954;7.116;2024-03-25T17:03:22;3.53;;;1.83;;
5333;SDS011;2689;50.954;7.116;2024-03-25T17:05:57;3.80;;;1.93;;
5333;SDS011;2689;50.954;7.116;2024-03-25T17:08:23;5.43;;;1.70;;
5333;SDS011;2689;50.954;7.116;2024-03-25T17:10:51;7.07;;;2.63;;
5333;SDS011;2689;50.954;7.116;2024-03-25T17:13:29;3.37;;;1.50;;
5333;SDS011;2689;50.954;7.116;2024-03-25T17:16:02;2.33;;;1.40;;
5333;SDS011;2689;50.954;7.116;2024-03-25T17:18:29;2.33;;;1.53;;
5333;SDS011;2689;50.954;7.116;2024-03-25T17:20:57;2.87;;;1.60;;
5333;SDS011;2689;50.954;7.116;2024-03-25T17:23:24;4.17;;;1.60;;
5333;SDS011;2689;50.954;7.116;2024-03-25T17:25:52;3.60;;;1.67;;
5333;SDS011;2689;50.954;7.116;2024-03-25T17:28:18;13.93;;;3.30;;
5333;SDS011;2689;50.954;7.116;2024-03-25T17:30:55;3.53;;;1.90;;
5333;SDS011;2689;50.954;7.116;2024-03-25T17:33:36;6.17;;;2.30;;
5333;SDS011;2689;50.954;7.116;2024-03-25T17:36:11;3.20;;;1.93;;
5333;SDS011;2689;50.954;7.116;2024-03-25T17:38:54;4.10;;;1.57;;
5333;SDS011;2689;50.954;7.116;2024-03-25T17:41:29;3.27;;;1.87;;
5333;SDS011;2689;50.954;7.116;2024-03-25T17:43:57;3.23;;;1.90;;
5333;SDS011;2689;50.954;7.116;2024-03-25T17:46:24;4.70;;;1.97;;
5333;SDS011;2689;50.954;7.116;2024-03-25T17:48:50;3.87;;;1.40;;
5333;SDS011;2689;50.954;7.116;2024-03-25T17:51:16;8.20;;;2.23;;
5333;SDS011;2689;50.954;7.116;2024-03-25T17:53:43;6.13;;;2.07;;
5333;SDS011;2689;50.954;7.116;2024-03-25T17:56:09;7.07;;;2.27;;
5333;SDS011;2689;50.954;7.116;2024-03-25T17:58:38;5.30;;;2.20;;
5333;SDS011;2689;50.954;7.116;2024-03-25T18:01:05;5.53;;;1.97;;
5333;SDS011;2689;50.954;7.116;2024-03-25T18:03:31;4.77;;;2.10;;
5333;SDS011;2689;50.954;7.116;2024-03-25T18:05:59;5.13;;;1.73;;
5333;SDS011;2689;50.954;7.116;2024-03-25T18:08:27;4.27;;;1.70;;
5333;SDS011;2689;50.954;7.116;2024-03-25T18:10:56;5.00;;;1.87;;
5333;SDS011;2689;50.954;7.116;2024-03-25T18:13:22;6.33;;;1.83;;
5333;SDS011;2689;50.954;7.116;2024-03-25T18:15:51;4.67;;;2.17;;
5333;SDS011;2689;50.954;7.116;2024-03-25T18:18:18;4.00;;;2.33;;
5333;SDS011;2689;50.954;7.116;2024-03-25T18:20:50;4.37;;;1.57;;
5333;SDS011;2689;50.954;7.116;2024-03-25T18:23:17;4.33;;;2.33;;
5333;SDS011;2689;50.954;7.116;2024-03-25T18:26:02;2.90;;;1.63;;
5333;SDS011;2689;50.954;7.116;2024-03-25T18:28:31;6.27;;;1.80;;
5333;SDS011;2689;50.954;7.116;2024-03-25T18:36:46;6.30;;;1.60;;
5333;SDS011;2689;50.954;7.116;2024-03-25T18:39:28;4.50;;;1.83;;
5333;SDS011;2689;50.954;7.116;2024-03-25T18:42:35;7.00;;;1.90;;
5333;SDS011;2689;50.954;7.116;2024-03-25T19:17:54;5.43;;;1.43;;
5333;SDS011;2689;50.954;7.116;2024-03-25T19:25:37;2.97;;;1.67;;
5333;SDS011;2689;50.954;7.116;2024-03-25T19:55:58;4.87;;;2.07;;
5333;SDS011;2689;50.954;7.116;2024-03-25T19:58:55;7.57;;;2.43;;
5333;SDS011;2689;50.954;7.116;2024-03-25T20:01:53;4.03;;;1.93;;
5333;SDS011;2689;50.954;7.116;2024-03-25T20:04:22;11.67;;;3.60;;
5333;SDS011;2689;50.954;7.116;2024-03-25T20:07:00;6.50;;;2.70;;
5333;SDS011;2689;50.954;7.116;2024-03-25T20:09:47;11.67;;;2.20;;
5333;SDS011;2689;50.954;7.116;2024-03-25T20:16:03;5.50;;;2.03;;
5333;SDS011;2689;50.954;7.116;2024-03-25T20:21:42;3.97;;;2.00;;
5333;SDS011;2689;50.954;7.116;2024-03-25T20:27:49;3.83;;;1.90;;
5333;SDS011;2689;50.954;7.116;2024-03-25T20:30:39;7.37;;;2.20;;
5333;SDS011;2689;50.954;7.116;2024-03-25T20:36:34;4.53;;;2.13;;
5333;SDS011;2689;50.954;7.116;2024-03-25T20:39:58;4.43;;;2.10;;
5333;SDS011;2689;50.954;7.116;2024-03-25T21:05:59;6.70;;;2.23;;
5333;SDS011;2689;50.954;7.116;2024-03-25T21:08:28;4.53;;;2.00;;
5333;SDS011;2689;50.954;7.116;2024-03-25T21:13:40;3.20;;;1.90;;
5333;SDS011;2689;50.954;7.116;2024-03-25T21:16:07;3.17;;;2.10;;
5333;SDS011;2689;50.954;7.116;2024-03-25T21:19:51;3.70;;;1.93;;
5333;SDS011;2689;50.954;7.116;2024-03-25T21:24:38;4.80;;;2.37;;
5333;SDS011;2689;50.954;7.116;2024-03-25T21:27:31;8.33;;;2.50;;
5333;SDS011;2689;50.954;7.116;2024-03-25T21:30:17;3.63;;;1.90;;
5333;SDS011;2689;50.954;7.116;2024-03-25T21:36:10;4.50;;;2.03;;
5333;SDS011;2689;50.954;7.116;2024-03-25T21:38:41;7.23;;;2.03;;
5333;SDS011;2689;50.954;7.116;2024-03-25T21:41:40;6.57;;;2.20;;
5333;SDS011;2689;50.954;7.116;2024-03-25T21:44:05;5.53;;;2.33;;
5333;SDS011;2689;50.954;7.116;2024-03-25T21:46:45;9.73;;;2.60;;
5333;SDS011;2689;50.954;7.116;2024-03-25T21:51:37;5.77;;;2.40;;
5333;SDS011;2689;50.954;7.116;2024-03-25T21:52:42;7.53;;;2.63;;
5333;SDS011;2689;50.954;7.116;2024-03-25T21:55:44;3.87;;;1.83;;
5333;SDS011;2689;50.954;7.116;2024-03-25T21:58:18;5.10;;;2.10;;
5333;SDS011;2689;50.954;7.116;2024-03-25T22:00:50;6.57;;;2.07;;
5333;SDS011;2689;50.954;7.116;2024-03-25T22:03:24;4.30;;;2.10;;
5333;SDS011;2689;50.954;7.116;2024-03-25T22:05:56;4.80;;;2.10;;
5333;SDS011;2689;50.954;7.116;2024-03-25T22:11:33;5.17;;;2.43;;
5333;SDS011;2689;50.954;7.116;2024-03-25T22:14:45;8.17;;;2.17;;
5333;SDS011;2689;50.954;7.116;2024-03-25T22:17:25;3.60;;;2.40;;
5333;SDS011;2689;50.954;7.116;2024-03-25T22:20:07;4.67;;;2.43;;
5333;SDS011;2689;50.954;7.116;2024-03-25T22:25:24;6.00;;;2.57;;
5333;SDS011;2689;50.954;7.116;2024-03-25T22:26:04;8.23;;;2.70;;
5333;SDS011;2689;50.954;7.116;2024-03-25T22:44:41;5.03;;;2.03;;
5333;SDS011;2689;50.954;7.116;2024-03-25T22:47:25;6.37;;;2.40;;
5333;SDS011;2689;50.954;7.116;2024-03-25T22:50:11;7.07;;;2.03;;
5333;SDS011;2689;50.954;7.116;2024-03-25T22:54:45;9.33;;;2.67;;
5333;SDS011;2689;50.954;7.116;2024-03-25T22:56:18;5.00;;;2.60;;
5333;SDS011;2689;50.954;7.116;2024-03-25T23:02:27;3.73;;;2.30;;
5333;SDS011;2689;50.954;7.116;2024-03-25T23:04:58;4.27;;;2.37;;
5333;SDS011;2689;50.954;7.116;2024-03-25T23:07:41;5.90;;;3.17;;
5333;SDS011;2689;50.954;7.116;2024-03-25T23:10:14;6.80;;;2.67;;
5333;SDS011;2689;50.954;7.116;2024-03-25T23:12:54;7.80;;;2.37;;
5333;SDS011;2689;50.954;7.116;2024-03-25T23:18:25;6.53;;;2.00;;
5333;SDS011;2689;50.954;7.116;2024-03-25T23:20:54;3.60;;;2.20;;
5333;SDS011;2689;50.954;7.116;2024-03-25T23:26:25;3.70;;;2.77;;
5333;SDS011;2689;50.954;7.116;2024-03-25T23:30:16;5.23;;;2.37;;
5333;SDS011;2689;50.954;7.116;2024-03-25T23:41:44;3.20;;;1.90;;
5333;SDS011;2689;50.954;7.116;2024-03-25T23:50:52;4.87;;;2.40;;
5333;SDS011;2689;50.954;7.116;2024-03-25T23:53:29;3.77;;;1.90;;
5333;SDS011;2689;50.954;7.116;2024-03-25T23:56:14;4.50;;;2.10;;
